createdAt,value
2018-12-29T00:00:30.635Z,49.13
2018-12-29T00:02:58.964Z,48.53
2018-12-29T00:05:27.324Z,48.23
2018-12-29T00:07:55.658Z,44.20
2018-12-29T00:10:24.062Z,50.95
2018-12-29T00:12:54.089Z,47.00
2018-12-29T00:15:22.499Z,46.40
2018-12-29T00:17:50.801Z,47.97
2018-12-29T00:20:19.155Z,44.90
2018-12-29T00:22:47.518Z,51.93
2018-12-29T00:25:17.345Z,43.23
2018-12-29T00:27:45.673Z,47.93
2018-12-29T00:30:15.663Z,45.92
2018-12-29T00:32:44.906Z,46.70
2018-12-29T00:35:13.414Z,42.87
2018-12-29T00:37:41.725Z,51.42
2018-12-29T00:40:10.138Z,43.30
2018-12-29T00:42:38.487Z,42.60
2018-12-29T00:45:06.903Z,41.50
2018-12-29T00:47:35.699Z,44.93
2018-12-29T00:50:05.087Z,41.73
2018-12-29T00:52:33.432Z,48.57
2018-12-29T00:55:01.753Z,50.27
2018-12-29T00:57:30.122Z,51.70
2018-12-29T00:59:58.552Z,50.27
2018-12-29T01:02:26.928Z,39.90
2018-12-29T01:04:55.373Z,46.93
2018-12-29T01:07:24.294Z,41.58
2018-12-29T01:09:52.705Z,40.37
2018-12-29T01:12:21.083Z,43.10
2018-12-29T01:14:49.413Z,47.73
2018-12-29T01:17:17.781Z,40.90
2018-12-29T01:19:46.155Z,41.53
2018-12-29T01:22:14.807Z,45.03
2018-12-29T01:24:43.162Z,44.17
2018-12-29T01:27:11.633Z,37.13
2018-12-29T01:29:39.937Z,47.83
2018-12-29T01:32:08.277Z,49.16
2018-12-29T01:34:36.736Z,44.23
2018-12-29T01:37:05.121Z,42.80
2018-12-29T01:39:33.502Z,43.85
2018-12-29T01:42:01.948Z,44.97
2018-12-29T01:44:30.268Z,43.30
2018-12-29T01:46:58.707Z,43.73
2018-12-29T01:49:27.047Z,40.43
2018-12-29T01:51:55.359Z,40.93
2018-12-29T01:54:23.722Z,46.33
2018-12-29T01:56:52.048Z,48.67
2018-12-29T01:59:20.392Z,41.60
2018-12-29T02:01:48.753Z,40.70
2018-12-29T02:04:17.094Z,48.17
2018-12-29T02:06:45.405Z,43.93
2018-12-29T02:09:14.035Z,48.37
2018-12-29T02:11:42.352Z,44.63
2018-12-29T02:14:10.720Z,46.85
2018-12-29T02:16:39.069Z,38.57
2018-12-29T02:19:07.400Z,43.20
2018-12-29T02:21:35.721Z,44.10
2018-12-29T02:24:04.140Z,39.90
2018-12-29T02:26:32.498Z,46.63
2018-12-29T02:29:00.872Z,40.73
2018-12-29T02:31:29.224Z,44.30
2018-12-29T02:33:57.646Z,43.07
2018-12-29T02:36:25.973Z,41.73
2018-12-29T02:38:54.311Z,37.83
2018-12-29T02:41:22.647Z,37.03
2018-12-29T02:43:51.019Z,36.30
2018-12-29T02:46:19.371Z,35.17
2018-12-29T02:48:47.699Z,43.33
2018-12-29T02:51:16.609Z,36.20
2018-12-29T02:53:44.942Z,35.50
2018-12-29T02:56:13.279Z,39.23
2018-12-29T02:58:41.628Z,41.27
2018-12-29T03:01:09.989Z,41.33
2018-12-29T03:03:38.313Z,40.20
2018-12-29T03:06:06.681Z,34.10
2018-12-29T03:08:35.098Z,40.33
2018-12-29T03:11:03.501Z,38.85
2018-12-29T03:13:31.818Z,36.13
2018-12-29T03:16:00.180Z,35.50
2018-12-29T03:18:28.555Z,34.93
2018-12-29T03:20:56.900Z,40.97
2018-12-29T03:23:25.229Z,45.80
2018-12-29T03:25:53.596Z,38.63
2018-12-29T03:28:21.943Z,37.97
2018-12-29T03:30:50.376Z,39.20
2018-12-29T03:33:18.710Z,35.50
2018-12-29T03:35:47.095Z,36.83
2018-12-29T03:38:15.604Z,36.53
2018-12-29T03:40:43.947Z,41.23
2018-12-29T03:43:12.291Z,35.43
2018-12-29T03:45:40.709Z,36.97
2018-12-29T03:48:09.060Z,34.53
2018-12-29T03:50:37.489Z,40.70
2018-12-29T03:53:06.002Z,41.97
2018-12-29T03:55:34.344Z,38.77
2018-12-29T03:58:02.683Z,43.73
2018-12-29T04:00:31.005Z,45.67
2018-12-29T04:02:59.355Z,34.40
2018-12-29T04:05:27.732Z,43.55
2018-12-29T04:07:56.197Z,38.80
2018-12-29T04:10:24.581Z,37.67
2018-12-29T04:12:52.977Z,39.20
2018-12-29T04:15:21.324Z,39.00
2018-12-29T04:17:49.669Z,38.37
2018-12-29T04:20:18.294Z,40.03
2018-12-29T04:22:46.684Z,40.90
2018-12-29T04:25:15.415Z,43.33
2018-12-29T04:27:43.746Z,34.10
2018-12-29T04:30:12.087Z,35.87
2018-12-29T04:32:41.295Z,39.73
2018-12-29T04:35:09.638Z,36.37
2018-12-29T04:37:37.977Z,37.70
2018-12-29T04:40:06.384Z,31.70
2018-12-29T04:42:34.727Z,38.57
2018-12-29T04:45:03.056Z,35.80
2018-12-29T04:47:31.376Z,38.53
2018-12-29T04:49:59.743Z,39.07
2018-12-29T04:52:28.063Z,37.93
2018-12-29T04:54:56.417Z,38.40
2018-12-29T04:57:24.768Z,38.90
2018-12-29T04:59:53.096Z,39.07
2018-12-29T05:02:21.422Z,40.98
2018-12-29T05:04:50.634Z,42.17
2018-12-29T05:07:18.953Z,40.67
2018-12-29T05:09:47.325Z,42.23
2018-12-29T05:12:15.670Z,39.65
2018-12-29T05:14:44.009Z,40.47
2018-12-29T05:17:12.604Z,38.03
2018-12-29T05:19:40.938Z,42.63
2018-12-29T05:22:09.285Z,40.43
2018-12-29T05:24:37.663Z,45.28
2018-12-29T05:27:06.018Z,40.20
2018-12-29T05:29:34.396Z,39.13
2018-12-29T05:32:02.938Z,41.58
2018-12-29T05:34:31.282Z,46.33
2018-12-29T05:36:59.632Z,38.90
2018-12-29T05:39:27.968Z,41.37
2018-12-29T05:41:56.289Z,41.80
2018-12-29T05:44:24.633Z,40.20
2018-12-29T05:46:52.950Z,41.08
2018-12-29T05:49:21.319Z,44.00
2018-12-29T05:51:49.664Z,44.13
2018-12-29T05:54:18.004Z,42.43
2018-12-29T05:56:46.342Z,37.25
2018-12-29T05:59:14.906Z,39.37
2018-12-29T06:01:43.242Z,38.83
2018-12-29T06:04:11.748Z,38.83
2018-12-29T06:06:40.066Z,36.97
2018-12-29T06:09:08.421Z,37.10
2018-12-29T06:11:36.759Z,36.33
2018-12-29T06:14:05.105Z,40.87
2018-12-29T06:16:33.436Z,41.40
2018-12-29T06:19:01.796Z,38.23
2018-12-29T06:21:30.142Z,33.77
2018-12-29T06:23:58.487Z,37.07
2018-12-29T06:26:26.825Z,34.60
2018-12-29T06:28:55.166Z,40.03
2018-12-29T06:31:23.550Z,38.23
2018-12-29T06:33:51.974Z,40.07
2018-12-29T06:36:20.389Z,31.65
2018-12-29T06:38:48.727Z,35.55
2018-12-29T06:41:17.063Z,36.03
2018-12-29T06:43:45.429Z,32.33
2018-12-29T06:46:14.178Z,30.00
2018-12-29T06:48:42.753Z,49.77
2018-12-29T06:51:11.095Z,33.00
2018-12-29T06:53:39.457Z,33.13
2018-12-29T06:56:07.791Z,34.40
2018-12-29T06:58:36.163Z,30.90
2018-12-29T07:01:04.542Z,37.13
2018-12-29T07:03:32.873Z,35.97
2018-12-29T07:06:01.602Z,35.73
2018-12-29T07:08:29.917Z,31.63
2018-12-29T07:10:58.268Z,33.47
2018-12-29T07:13:26.609Z,33.55
2018-12-29T07:15:54.956Z,33.97
2018-12-29T07:18:23.315Z,37.60
2018-12-29T07:20:51.656Z,34.93
2018-12-29T07:23:19.990Z,37.57
2018-12-29T07:25:48.347Z,33.53
2018-12-29T07:28:16.710Z,37.65
2018-12-29T07:30:45.052Z,38.20
2018-12-29T07:33:13.378Z,28.23
2018-12-29T07:35:41.726Z,34.77
2018-12-29T07:38:10.465Z,36.80
2018-12-29T07:40:38.824Z,35.20
2018-12-29T07:43:07.180Z,31.67
2018-12-29T07:45:35.531Z,33.47
2018-12-29T07:48:03.912Z,34.43
2018-12-29T07:50:32.281Z,34.23
2018-12-29T07:53:00.610Z,29.90
2018-12-29T07:55:28.953Z,32.98
2018-12-29T07:57:57.314Z,35.00
2018-12-29T08:00:25.670Z,39.70
2018-12-29T08:02:54.520Z,35.48
2018-12-29T08:05:22.857Z,34.03
2018-12-29T08:07:51.309Z,41.70
2018-12-29T08:10:19.690Z,33.10
2018-12-29T08:12:48.027Z,37.53
2018-12-29T08:15:16.379Z,34.80
2018-12-29T08:17:44.718Z,35.07
2018-12-29T08:20:13.569Z,39.33
2018-12-29T08:22:41.901Z,41.10
2018-12-29T08:25:11.010Z,35.13
2018-12-29T08:27:40.703Z,37.13
2018-12-29T08:30:09.341Z,37.60
2018-12-29T08:32:38.098Z,31.70
2018-12-29T08:35:06.605Z,37.50
2018-12-29T08:37:34.950Z,32.43
2018-12-29T08:40:03.635Z,36.37
2018-12-29T08:42:31.952Z,35.60
2018-12-29T08:45:00.302Z,39.90
2018-12-29T08:47:28.645Z,36.70
2018-12-29T08:49:56.976Z,36.87
2018-12-29T08:52:25.324Z,34.33
2018-12-29T08:54:53.672Z,41.57
2018-12-29T08:57:22.017Z,40.48
2018-12-29T08:59:50.352Z,38.97
2018-12-29T09:02:18.703Z,34.23
2018-12-29T09:04:47.092Z,36.77
2018-12-29T09:07:15.495Z,36.07
2018-12-29T09:09:43.827Z,33.40
2018-12-29T09:12:12.364Z,39.30
2018-12-29T09:14:41.285Z,36.28
2018-12-29T09:17:12.266Z,41.93
2018-12-29T09:19:39.969Z,43.60
2018-12-29T09:22:08.522Z,34.17
2018-12-29T09:24:36.860Z,36.30
2018-12-29T09:27:05.195Z,40.12
2018-12-29T09:29:33.535Z,37.90
2018-12-29T09:32:01.885Z,40.93
2018-12-29T09:34:30.661Z,40.90
2018-12-29T09:36:59.067Z,35.87
2018-12-29T09:39:27.412Z,36.93
2018-12-29T09:41:55.751Z,37.40
2018-12-29T09:44:24.145Z,38.00
2018-12-29T09:46:52.476Z,37.63
2018-12-29T09:49:20.802Z,38.37
2018-12-29T09:51:49.175Z,36.97
2018-12-29T09:54:17.533Z,33.83
2018-12-29T09:56:45.896Z,30.10
2018-12-29T09:59:14.228Z,31.60
2018-12-29T10:01:42.609Z,40.10
2018-12-29T10:04:10.930Z,40.33
2018-12-29T10:06:39.271Z,35.53
2018-12-29T10:09:07.994Z,37.38
2018-12-29T10:11:36.330Z,34.13
2018-12-29T10:14:04.649Z,36.68
2018-12-29T10:16:33.057Z,35.63
2018-12-29T10:19:01.401Z,37.37
2018-12-29T10:21:29.742Z,37.83
2018-12-29T10:23:58.081Z,35.73
2018-12-29T10:26:26.440Z,34.50
2018-12-29T10:28:54.754Z,44.07
2018-12-29T10:31:23.097Z,41.27
2018-12-29T10:33:51.436Z,40.90
2018-12-29T10:36:19.810Z,38.70
2018-12-29T10:38:48.146Z,33.70
2018-12-29T10:41:16.499Z,34.33
2018-12-29T10:43:44.848Z,34.60
2018-12-29T10:46:13.206Z,33.83
2018-12-29T10:48:41.636Z,41.17
2018-12-29T10:51:10.280Z,33.23
2018-12-29T10:53:38.609Z,39.47
2018-12-29T10:56:06.967Z,38.77
2018-12-29T10:58:35.326Z,37.77
2018-12-29T11:01:04.440Z,43.37
2018-12-29T11:03:33.571Z,39.03
2018-12-29T11:06:02.547Z,37.47
2018-12-29T11:08:32.981Z,41.60
2018-12-29T11:11:02.293Z,33.10
2018-12-29T11:13:31.298Z,35.33
2018-12-29T11:16:00.341Z,35.00
2018-12-29T11:18:29.306Z,38.87
2018-12-29T11:20:58.322Z,34.67
2018-12-29T11:23:27.363Z,34.98
2018-12-29T11:25:55.777Z,36.30
2018-12-29T11:28:24.119Z,33.20
2018-12-29T11:30:52.494Z,33.93
2018-12-29T11:33:20.834Z,35.23
2018-12-29T11:35:50.267Z,34.90
2018-12-29T11:38:18.616Z,40.10
2018-12-29T11:40:46.949Z,38.93
2018-12-29T11:43:16.655Z,43.00
2018-12-29T11:45:45.081Z,38.13
2018-12-29T11:48:13.452Z,35.80
2018-12-29T11:50:41.769Z,36.17
2018-12-29T11:53:10.448Z,36.40
2018-12-29T11:55:38.789Z,35.00
2018-12-29T11:58:07.562Z,36.73
2018-12-29T12:00:35.886Z,35.90
2018-12-29T12:03:04.243Z,45.57
2018-12-29T12:05:32.580Z,39.20
2018-12-29T12:08:00.916Z,34.27
2018-12-29T12:10:29.330Z,41.10
2018-12-29T12:12:57.675Z,36.47
2018-12-29T12:15:26.015Z,35.92
2018-12-29T12:17:57.643Z,34.35
2018-12-29T12:20:25.669Z,38.17
2018-12-29T12:22:54.027Z,37.20
2018-12-29T12:25:22.350Z,37.40
2018-12-29T12:27:51.094Z,39.27
2018-12-29T12:30:19.520Z,38.20
2018-12-29T12:32:47.857Z,32.83
2018-12-29T12:35:16.436Z,40.63
2018-12-29T12:37:44.797Z,34.20
2018-12-29T12:40:13.218Z,36.70
2018-12-29T12:42:41.677Z,35.83
2018-12-29T12:45:10.489Z,35.53
2018-12-29T12:47:38.955Z,36.40
2018-12-29T12:50:07.384Z,37.45
2018-12-29T12:52:36.104Z,40.60
2018-12-29T12:55:04.775Z,35.73
2018-12-29T12:57:33.105Z,40.93
2018-12-29T13:00:01.849Z,37.10
2018-12-29T13:02:30.468Z,40.70
2018-12-29T13:04:58.813Z,35.57
2018-12-29T13:07:27.166Z,35.43
2018-12-29T13:09:55.771Z,36.28
2018-12-29T13:12:24.189Z,33.07
2018-12-29T13:14:52.701Z,35.88
2018-12-29T13:17:21.060Z,36.73
2018-12-29T13:19:49.386Z,33.90
2018-12-29T13:22:17.734Z,36.67
2018-12-29T13:24:46.196Z,38.43
2018-12-29T13:27:14.853Z,39.43
2018-12-29T13:29:43.205Z,35.33
2018-12-29T13:32:11.541Z,32.03
2018-12-29T13:34:39.907Z,36.33
2018-12-29T13:37:08.590Z,34.33
2018-12-29T13:39:37.136Z,37.30
2018-12-29T13:42:05.545Z,32.77
2018-12-29T13:44:33.906Z,36.68
2018-12-29T13:47:02.327Z,36.10
2018-12-29T13:49:30.763Z,35.30
2018-12-29T13:51:59.327Z,37.43
2018-12-29T13:54:27.807Z,41.70
2018-12-29T13:56:56.246Z,35.27
2018-12-29T13:59:24.591Z,38.20
2018-12-29T14:01:53.266Z,39.90
2018-12-29T14:04:21.598Z,35.70
2018-12-29T14:06:49.952Z,35.50
2018-12-29T14:09:18.305Z,33.02
2018-12-29T14:11:46.647Z,39.23
2018-12-29T14:14:14.967Z,35.03
2018-12-29T14:16:43.478Z,39.10
2018-12-29T14:19:11.792Z,36.97
2018-12-29T14:21:40.241Z,35.60
2018-12-29T14:24:09.020Z,34.23
2018-12-29T14:26:37.977Z,33.88
2018-12-29T14:29:06.580Z,32.70
2018-12-29T14:31:34.916Z,33.60
2018-12-29T14:34:03.399Z,37.17
2018-12-29T14:36:32.629Z,35.63
2018-12-29T14:39:01.929Z,35.43
2018-12-29T14:41:30.277Z,37.27
2018-12-29T14:43:58.597Z,34.97
2018-12-29T14:46:27.060Z,31.93
2018-12-29T14:48:55.368Z,33.17
2018-12-29T14:51:24.110Z,35.40
2018-12-29T14:53:52.534Z,33.00
2018-12-29T14:56:20.884Z,34.33
2018-12-29T14:58:49.207Z,33.15
2018-12-29T15:01:17.619Z,42.63
2018-12-29T15:03:46.017Z,32.60
2018-12-29T15:06:14.395Z,42.23
2018-12-29T15:08:42.758Z,33.83
2018-12-29T15:11:11.953Z,35.60
2018-12-29T15:13:40.321Z,33.27
2018-12-29T15:16:09.135Z,39.37
2018-12-29T15:18:43.517Z,36.45
2018-12-29T15:21:07.950Z,35.67
2018-12-29T15:23:36.295Z,35.97
2018-12-29T15:26:04.734Z,39.07
2018-12-29T15:28:33.289Z,33.20
2018-12-29T15:31:01.639Z,38.40
2018-12-29T15:33:30.365Z,37.85
2018-12-29T15:35:58.801Z,36.37
2018-12-29T15:38:27.161Z,37.47
2018-12-29T15:40:55.863Z,37.90
2018-12-29T15:43:24.294Z,32.53
2018-12-29T15:45:52.802Z,34.00
2018-12-29T15:48:21.492Z,35.50
2018-12-29T15:50:49.825Z,36.60
2018-12-29T15:53:18.183Z,36.30
2018-12-29T15:55:46.529Z,38.20
2018-12-29T15:58:15.384Z,37.87
2018-12-29T16:00:43.838Z,35.63
2018-12-29T16:03:13.025Z,38.40
2018-12-29T16:05:41.367Z,39.63
2018-12-29T16:08:09.798Z,41.68
2018-12-29T16:10:38.149Z,33.30
2018-12-29T16:13:06.607Z,33.20
2018-12-29T16:15:34.955Z,31.50
2018-12-29T16:18:03.696Z,30.87
2018-12-29T16:20:32.108Z,32.53
2018-12-29T16:23:00.549Z,34.57
2018-12-29T16:25:28.979Z,35.60
2018-12-29T16:27:57.462Z,34.67
2018-12-29T16:30:26.201Z,37.17
2018-12-29T16:32:54.963Z,29.80
2018-12-29T16:35:23.424Z,34.00
2018-12-29T16:37:51.966Z,33.47
2018-12-29T16:40:20.469Z,33.70
2018-12-29T16:42:48.897Z,34.60
2018-12-29T16:45:18.210Z,29.80
2018-12-29T16:47:46.643Z,31.83
2018-12-29T16:50:15.629Z,31.60
2018-12-29T16:52:44.035Z,34.73
2018-12-29T16:55:12.930Z,32.60
2018-12-29T16:57:41.263Z,37.67
2018-12-29T17:00:09.783Z,38.63
2018-12-29T17:02:38.203Z,33.70
2018-12-29T17:05:06.856Z,32.30
2018-12-29T17:07:35.272Z,38.60
2018-12-29T17:10:05.064Z,36.80
2018-12-29T17:12:33.502Z,32.90
2018-12-29T17:15:02.275Z,33.90
2018-12-29T17:17:30.695Z,35.57
2018-12-29T17:19:59.131Z,35.23
2018-12-29T17:22:28.393Z,34.48
2018-12-29T17:24:56.818Z,32.47
2018-12-29T17:27:25.257Z,31.20
2018-12-29T17:29:53.987Z,30.23
2018-12-29T17:32:22.421Z,32.40
2018-12-29T17:34:50.858Z,31.70
2018-12-29T17:37:19.326Z,34.23
2018-12-29T17:39:47.802Z,32.90
2018-12-29T17:42:16.322Z,32.57
2018-12-29T17:44:44.678Z,34.90
2018-12-29T17:47:13.609Z,33.07
2018-12-29T17:49:41.952Z,38.13
2018-12-29T17:52:10.417Z,36.77
2018-12-29T17:54:38.832Z,35.67
2018-12-29T17:57:07.731Z,34.90
2018-12-29T17:59:36.165Z,32.17
2018-12-29T18:02:04.693Z,34.53
2018-12-29T18:04:33.409Z,33.28
2018-12-29T18:07:01.861Z,31.03
2018-12-29T18:09:30.297Z,35.40
2018-12-29T18:11:58.853Z,35.20
2018-12-29T18:14:27.308Z,33.70
2018-12-29T18:16:55.750Z,30.25
2018-12-29T18:19:30.499Z,33.73
2018-12-29T18:21:54.521Z,33.47
2018-12-29T18:24:22.939Z,32.17
2018-12-29T18:26:51.422Z,30.50
2018-12-29T18:29:19.956Z,30.95
2018-12-29T18:31:48.716Z,28.30
2018-12-29T18:34:17.029Z,32.30
2018-12-29T18:36:45.516Z,32.23
2018-12-29T18:39:14.276Z,29.75
2018-12-29T18:41:42.724Z,32.63
2018-12-29T18:44:11.462Z,37.40
2018-12-29T18:46:39.879Z,32.33
2018-12-29T18:49:08.464Z,28.53
2018-12-29T18:51:36.898Z,29.17
2018-12-29T18:54:05.369Z,30.77
2018-12-29T18:56:34.153Z,37.67
2018-12-29T18:59:02.597Z,31.77
2018-12-29T19:01:31.013Z,33.63
2018-12-29T19:03:59.468Z,26.80
2018-12-29T19:06:27.811Z,26.00
2018-12-29T19:08:56.170Z,25.80
2018-12-29T19:11:24.917Z,27.70
2018-12-29T19:13:53.282Z,26.00
2018-12-29T19:16:21.619Z,23.80
2018-12-29T19:18:50.097Z,26.20
2018-12-29T19:21:18.827Z,30.83
2018-12-29T19:23:49.223Z,23.57
2018-12-29T19:26:17.960Z,23.23
2018-12-29T19:28:46.627Z,24.67
2018-12-29T19:31:15.764Z,26.77
2018-12-29T19:33:44.678Z,29.70
2018-12-29T19:36:13.363Z,29.30
2018-12-29T19:38:41.701Z,24.55
2018-12-29T19:41:10.340Z,22.10
2018-12-29T19:43:38.672Z,24.90
2018-12-29T19:46:07.284Z,26.60
2018-12-29T19:49:10.338Z,26.10
2018-12-29T19:51:38.693Z,26.87
2018-12-29T19:54:07.147Z,25.20
2018-12-29T19:56:35.471Z,24.23
2018-12-29T19:59:04.134Z,23.27
2018-12-29T20:01:32.581Z,24.60
2018-12-29T20:04:01.319Z,26.17
2018-12-29T20:06:29.645Z,22.23
2018-12-29T20:08:58.011Z,24.32
2018-12-29T20:11:26.433Z,27.63
2018-12-29T20:13:54.874Z,26.37
2018-12-29T20:16:23.235Z,24.87
2018-12-29T20:18:51.733Z,23.90
2018-12-29T20:21:21.069Z,27.70
2018-12-29T20:23:49.440Z,22.23
2018-12-29T20:26:17.870Z,24.80
2018-12-29T20:28:46.211Z,23.97
2018-12-29T20:31:14.977Z,24.00
2018-12-29T20:33:43.307Z,21.07
2018-12-29T20:36:11.678Z,19.73
2018-12-29T20:38:40.126Z,19.17
2018-12-29T20:41:08.464Z,21.93
2018-12-29T20:43:37.129Z,27.73
2018-12-29T20:46:05.601Z,24.47
2018-12-29T20:48:34.055Z,25.10
2018-12-29T20:51:02.503Z,20.20
2018-12-29T20:53:30.950Z,23.30
2018-12-29T20:55:59.394Z,24.30
2018-12-29T20:58:27.842Z,23.27
2018-12-29T21:00:56.317Z,19.60
2018-12-29T21:03:24.623Z,22.20
2018-12-29T21:05:52.994Z,26.83
2018-12-29T21:08:21.423Z,24.00
2018-12-29T21:10:50.188Z,26.67
2018-12-29T21:13:18.562Z,23.60
2018-12-29T21:15:48.755Z,30.20
2018-12-29T21:18:17.270Z,25.87
2018-12-29T21:20:45.747Z,22.48
2018-12-29T21:23:14.585Z,23.93
2018-12-29T21:25:43.078Z,21.73
2018-12-29T21:28:11.550Z,22.40
2018-12-29T21:30:40.018Z,21.03
2018-12-29T21:33:08.451Z,20.07
2018-12-29T21:35:36.903Z,20.30
2018-12-29T21:38:05.638Z,22.37
2018-12-29T21:40:34.230Z,19.17
2018-12-29T21:43:02.702Z,20.40
2018-12-29T21:45:31.142Z,19.23
2018-12-29T21:47:59.793Z,20.70
2018-12-29T21:50:28.250Z,23.32
2018-12-29T21:52:56.873Z,23.87
2018-12-29T21:55:25.334Z,16.70
2018-12-29T21:57:53.803Z,19.20
2018-12-29T22:00:22.347Z,18.10
2018-12-29T22:02:50.833Z,18.23
2018-12-29T22:05:19.389Z,17.73
2018-12-29T22:07:47.760Z,17.30
2018-12-29T22:10:16.755Z,19.60
2018-12-29T22:12:45.381Z,20.73
2018-12-29T22:15:14.302Z,18.33
2018-12-29T22:17:42.650Z,16.40
2018-12-29T22:20:11.501Z,19.10
2018-12-29T22:22:39.834Z,14.30
2018-12-29T22:25:08.206Z,15.40
2018-12-29T22:27:36.738Z,16.90
2018-12-29T22:30:06.337Z,12.10
2018-12-29T22:32:34.807Z,11.77
2018-12-29T22:35:03.419Z,9.37
2018-12-29T22:37:31.872Z,9.00
2018-12-29T22:40:00.423Z,8.00
2018-12-29T22:42:28.839Z,7.07
2018-12-29T22:44:57.257Z,7.90
2018-12-29T22:47:25.929Z,6.03
2018-12-29T22:49:54.351Z,9.30
2018-12-29T22:52:22.677Z,8.50
2018-12-29T22:54:51.036Z,6.70
2018-12-29T22:57:19.446Z,7.30
2018-12-29T22:59:47.909Z,7.80
2018-12-29T23:02:16.493Z,10.00
2018-12-29T23:04:44.979Z,8.77
2018-12-29T23:07:14.325Z,14.20
2018-12-29T23:09:42.673Z,7.13
2018-12-29T23:12:11.120Z,7.30
2018-12-29T23:14:39.573Z,6.00
2018-12-29T23:17:07.988Z,5.40
2018-12-29T23:19:36.327Z,8.13
2018-12-29T23:22:04.657Z,7.10
2018-12-29T23:24:33.112Z,5.50
2018-12-29T23:27:01.562Z,8.20
2018-12-29T23:29:30.005Z,8.40
2018-12-29T23:31:58.438Z,8.77
2018-12-29T23:34:27.231Z,7.73
2018-12-29T23:36:55.672Z,7.27
2018-12-29T23:39:24.020Z,6.60
2018-12-29T23:41:52.780Z,7.10
2018-12-29T23:44:21.225Z,6.30
2018-12-29T23:46:50.229Z,7.00
2018-12-29T23:49:18.781Z,5.00
2018-12-29T23:51:47.216Z,6.40
2018-12-29T23:54:15.767Z,9.55
2018-12-29T23:56:44.392Z,7.53
2018-12-29T23:59:12.964Z,6.47
